createdAt,value
2022-09-04T00:02:13.928Z,95424.97
2022-09-04T00:05:17.267Z,95440.72
2022-09-04T00:08:19.373Z,95439.56
2022-09-04T00:11:01.282Z,95430.59
2022-09-04T00:13:42.765Z,95433.25
2022-09-04T00:16:27.855Z,95440.81
2022-09-04T00:19:03.986Z,95433.09
2022-09-04T00:21:54.727Z,95443.13
2022-09-04T00:24:36.717Z,95439.63
2022-09-04T00:27:17.930Z,95452.22
2022-09-04T00:30:13.875Z,95444.47
2022-09-04T00:33:19.222Z,95449.75
2022-09-04T00:36:01.998Z,95451.19
2022-09-04T00:38:43.443Z,95444.75
2022-09-04T00:41:16.053Z,95434.81
2022-09-04T00:44:00.911Z,95433.19
2022-09-04T00:46:39.623Z,95440.03
2022-09-04T00:49:18.286Z,95434.53
2022-09-04T00:52:08.049Z,95432.06
2022-09-04T00:54:37.539Z,95432.88
2022-09-04T00:57:40.912Z,95434.34
2022-09-04T01:00:08.380Z,95422.03
2022-09-04T01:03:02.695Z,95425.75
2022-09-04T01:05:47.993Z,95426.94
2022-09-04T01:08:27.180Z,95438.38
2022-09-04T01:11:21.452Z,95446.91
2022-09-04T01:13:50.984Z,95445.84
2022-09-04T01:16:27.776Z,95450.69
2022-09-04T01:19:25.181Z,95447.66
2022-09-04T01:21:57.558Z,95451.63
2022-09-04T01:24:36.204Z,95454.53
2022-09-04T01:27:15.369Z,95444.66
2022-09-04T01:30:04.584Z,95448.72
2022-09-04T01:32:52.688Z,95435.22
2022-09-04T01:35:48.143Z,95427.06
2022-09-04T01:38:45.529Z,95422.28
2022-09-04T01:41:22.250Z,95424.41
2022-09-04T01:43:49.051Z,95435.97
2022-09-04T01:46:55.167Z,95435.59
2022-09-04T01:49:27.807Z,95434.63
2022-09-04T01:52:05.854Z,95434.03
2022-09-04T01:54:58.368Z,95435.97
2022-09-04T01:57:24.795Z,95430.78
2022-09-04T02:00:12.861Z,95428.97
2022-09-04T02:02:39.384Z,95430.38
2022-09-04T02:05:20.414Z,95428.22
2022-09-04T02:07:54.834Z,95423.31
2022-09-04T02:10:31.836Z,95425.28
2022-09-04T02:13:22.444Z,95424.25
2022-09-04T02:15:58.670Z,95422.13
2022-09-04T02:18:43.376Z,95416.03
2022-09-04T02:21:33.091Z,95420.66
2022-09-04T02:24:02.530Z,95409.00
2022-09-04T02:26:51.363Z,95407.66
2022-09-04T02:29:30.027Z,95409.19
2022-09-04T02:32:09.740Z,95402.06
2022-09-04T02:35:02.822Z,95406.50
2022-09-04T02:37:43.310Z,95399.84
2022-09-04T02:40:48.628Z,95407.84
2022-09-04T02:43:40.999Z,95415.75
2022-09-04T02:46:29.498Z,95414.22
2022-09-04T02:48:57.656Z,95412.38
2022-09-04T02:51:36.336Z,95426.25
2022-09-04T02:54:10.892Z,95424.50
2022-09-04T02:56:58.740Z,95421.03
2022-09-04T02:59:52.821Z,95445.13
2022-09-04T03:02:41.722Z,95442.13
2022-09-04T03:05:19.865Z,95437.72
2022-09-04T03:08:00.247Z,95432.50
2022-09-04T03:10:53.502Z,95432.66
2022-09-04T03:13:28.168Z,95438.78
2022-09-04T03:16:00.542Z,95438.88
2022-09-04T03:18:56.429Z,95433.88
2022-09-04T03:21:32.472Z,95428.72
2022-09-04T03:24:06.262Z,95419.06
2022-09-04T03:26:39.533Z,95429.66
2022-09-04T03:29:15.127Z,95426.16
2022-09-04T03:31:47.797Z,95441.72
2022-09-04T03:34:26.494Z,95448.25
2022-09-04T03:36:59.219Z,95437.94
2022-09-04T03:39:32.531Z,95436.34
2022-09-04T03:42:15.241Z,95441.69
2022-09-04T03:45:00.959Z,95450.97
2022-09-04T03:47:52.301Z,95461.47
2022-09-04T03:50:52.254Z,95460.19
2022-09-04T03:53:40.827Z,95456.91
2022-09-04T03:56:26.574Z,95467.81
2022-09-04T03:59:03.366Z,95475.47
2022-09-04T04:01:53.011Z,95477.88
2022-09-04T04:04:44.180Z,95489.09
2022-09-04T04:07:47.946Z,95489.94
2022-09-04T04:10:35.497Z,95506.31
2022-09-04T04:13:23.361Z,95508.97
2022-09-04T04:15:55.955Z,95508.03
2022-09-04T04:18:42.996Z,95507.25
2022-09-04T04:21:18.816Z,95511.56
2022-09-04T04:24:18.060Z,95517.88
2022-09-04T04:27:15.106Z,95514.22
2022-09-04T04:29:59.855Z,95514.81
2022-09-04T04:32:38.691Z,95525.47
2022-09-04T04:35:14.160Z,95540.06
2022-09-04T04:38:20.532Z,95542.78
2022-09-04T04:41:21.476Z,95509.97
2022-09-04T04:43:59.900Z,95515.63
2022-09-04T04:46:38.686Z,95510.38
2022-09-04T04:49:29.824Z,95526.53
2022-09-04T04:51:59.150Z,95521.16
2022-09-04T04:54:44.123Z,95542.25
2022-09-04T04:57:18.086Z,95535.22
2022-09-04T05:00:27.753Z,95528.84
2022-09-04T05:03:19.157Z,95521.16
2022-09-04T05:06:10.190Z,95535.28
2022-09-04T05:08:45.718Z,95523.38
2022-09-04T05:11:37.314Z,95528.78
2022-09-04T05:14:41.040Z,95528.03
2022-09-04T05:17:23.716Z,95518.50
2022-09-04T05:20:28.511Z,95519.25
2022-09-04T05:23:08.457Z,95532.81
2022-09-04T05:25:53.710Z,95550.84
2022-09-04T05:28:26.511Z,95554.69
2022-09-04T05:31:11.736Z,95545.88
2022-09-04T05:34:08.814Z,95550.25
2022-09-04T05:36:54.604Z,95552.09
2022-09-04T05:39:44.748Z,95554.19
2022-09-04T05:42:38.867Z,95558.25
2022-09-04T05:45:27.017Z,95554.38
2022-09-04T05:48:12.217Z,95542.94
2022-09-04T05:50:54.366Z,95539.91
2022-09-04T05:53:28.407Z,95534.56
2022-09-04T05:56:04.207Z,95531.16
2022-09-04T05:59:05.395Z,95520.38
2022-09-04T06:01:51.635Z,95516.38
2022-09-04T06:04:30.573Z,95510.94
2022-09-04T06:07:02.784Z,95510.16
2022-09-04T06:10:07.412Z,95499.00
2022-09-04T06:13:35.556Z,95513.59
2022-09-04T06:16:19.801Z,95487.91
2022-09-04T06:19:04.965Z,95509.16
2022-09-04T06:22:03.360Z,95501.72
2022-09-04T06:24:47.243Z,95499.19
2022-09-04T06:27:22.780Z,95502.16
2022-09-04T06:30:17.830Z,95495.75
2022-09-04T06:32:44.489Z,95486.06
2022-09-04T06:35:33.277Z,95488.72
2022-09-04T06:38:14.706Z,95499.56
2022-09-04T06:40:57.177Z,95487.72
2022-09-04T06:43:55.974Z,95494.75
2022-09-04T06:46:27.244Z,95495.03
2022-09-04T06:49:07.580Z,95493.34
2022-09-04T06:51:55.796Z,95505.84
2022-09-04T06:54:34.023Z,95500.13
2022-09-04T06:57:35.393Z,95493.56
2022-09-04T07:00:13.240Z,95497.66
2022-09-04T07:02:39.861Z,95498.19
2022-09-04T07:05:09.845Z,95496.16
2022-09-04T07:08:10.563Z,95498.44
2022-09-04T07:10:44.263Z,95498.44
2022-09-04T07:13:48.171Z,95504.66
2022-09-04T07:16:27.029Z,95500.13
2022-09-04T07:19:30.093Z,95506.94
2022-09-04T07:22:11.715Z,95513.97
2022-09-04T07:25:17.305Z,95500.81
2022-09-04T07:27:43.853Z,95494.53
2022-09-04T07:30:13.804Z,95495.22
2022-09-04T07:32:40.382Z,95493.25
2022-09-04T07:35:11.117Z,95507.88
2022-09-04T07:38:03.811Z,95516.84
2022-09-04T07:40:39.220Z,95508.13
2022-09-04T07:43:08.373Z,95528.69
2022-09-04T07:45:38.823Z,95531.94
2022-09-04T07:48:20.986Z,95529.22
2022-09-04T07:51:03.210Z,95529.75
2022-09-04T07:54:05.047Z,95524.47
2022-09-04T07:56:54.937Z,95521.72
2022-09-04T07:59:36.671Z,95535.78
2022-09-04T08:02:06.304Z,95534.94
2022-09-04T08:04:51.285Z,95533.72
2022-09-04T08:07:27.698Z,95517.66
2022-09-04T08:10:03.335Z,95552.63
2022-09-04T08:12:51.265Z,95548.88
2022-09-04T08:15:22.093Z,95552.88
2022-09-04T08:17:57.961Z,95543.06
2022-09-04T08:20:28.994Z,95540.81
2022-09-04T08:23:09.743Z,95543.88
2022-09-04T08:26:33.838Z,95539.78
2022-09-04T08:29:08.678Z,95540.53
2022-09-04T08:31:42.561Z,95539.19
2022-09-04T08:34:55.642Z,95527.88
2022-09-04T08:37:48.502Z,95523.28
2022-09-04T08:40:15.078Z,95526.97
2022-09-04T08:43:19.059Z,95519.03
2022-09-04T08:46:03.886Z,95535.03
2022-09-04T08:48:56.497Z,95527.31
2022-09-04T08:51:34.190Z,95510.53
2022-09-04T08:54:31.207Z,95512.69
2022-09-04T08:57:36.041Z,95501.91
2022-09-04T09:00:12.697Z,95512.44
2022-09-04T09:03:04.981Z,95506.31
2022-09-04T09:05:53.777Z,95513.63
2022-09-04T09:09:12.783Z,95501.53
2022-09-04T09:12:12.562Z,95485.97
2022-09-04T09:15:00.756Z,95508.25
2022-09-04T09:17:49.088Z,95514.38
2022-09-04T09:20:24.681Z,95499.88
2022-09-04T09:23:09.877Z,95514.38
2022-09-04T09:26:31.239Z,95510.22
2022-09-04T09:29:22.485Z,95504.41
2022-09-04T09:32:20.223Z,95494.44
2022-09-04T09:35:08.796Z,95503.56
2022-09-04T09:38:09.137Z,95496.19
2022-09-04T09:40:44.439Z,95500.13
2022-09-04T09:43:42.224Z,95495.09
2022-09-04T09:46:23.997Z,95492.97
2022-09-04T09:49:19.993Z,95489.22
2022-09-04T09:52:30.648Z,95474.56
2022-09-04T09:55:19.095Z,95471.00
2022-09-04T09:58:05.900Z,95475.03
2022-09-04T10:01:00.133Z,95459.66
2022-09-04T10:03:59.410Z,95455.78
2022-09-04T10:06:49.545Z,95463.88
2022-09-04T10:09:41.214Z,95479.66
2022-09-04T10:12:35.481Z,95467.13
2022-09-04T10:15:16.989Z,95475.16
2022-09-04T10:18:24.054Z,95445.50
2022-09-04T10:21:20.652Z,95450.81
2022-09-04T10:24:18.201Z,95437.94
2022-09-04T10:27:18.541Z,95443.53
2022-09-04T10:29:45.140Z,95443.16
2022-09-04T10:32:34.694Z,95445.38
2022-09-04T10:35:25.460Z,95446.81
2022-09-04T10:38:16.130Z,95447.00
2022-09-04T10:40:54.257Z,95436.38
2022-09-04T10:43:45.177Z,95438.25
2022-09-04T10:46:56.024Z,95380.50
2022-09-04T10:49:34.515Z,95420.50
2022-09-04T10:52:35.813Z,95424.44
2022-09-04T10:55:17.792Z,95418.09
2022-09-04T10:57:55.416Z,95416.38
2022-09-04T11:00:26.823Z,95418.84
2022-09-04T11:03:24.966Z,95407.66
2022-09-04T11:06:02.344Z,95410.63
2022-09-04T11:08:42.584Z,95403.50
2022-09-04T11:11:35.622Z,95406.31
2022-09-04T11:14:17.647Z,95398.66
2022-09-04T11:17:05.582Z,95413.56
2022-09-04T11:19:44.501Z,95406.84
2022-09-04T11:22:34.983Z,95411.13
2022-09-04T11:25:33.339Z,95401.28
2022-09-04T11:28:34.767Z,95405.38
2022-09-04T11:31:33.455Z,95402.41
2022-09-04T11:34:15.374Z,95398.47
2022-09-04T11:37:15.401Z,95384.13
2022-09-04T11:40:32.229Z,95387.13
2022-09-04T11:43:07.427Z,95387.44
2022-09-04T11:45:55.918Z,95384.25
2022-09-04T11:48:47.407Z,95390.84
2022-09-04T11:51:40.051Z,95381.69
2022-09-04T11:54:15.460Z,95374.22
2022-09-04T11:56:58.669Z,95367.81
2022-09-04T12:00:01.690Z,95377.16
2022-09-04T12:02:47.620Z,95387.41
2022-09-04T12:05:16.124Z,95360.31
2022-09-04T12:08:08.219Z,95344.19
2022-09-04T12:10:49.731Z,95353.72
2022-09-04T12:14:04.115Z,95352.03
2022-09-04T12:17:15.953Z,95358.56
2022-09-04T12:20:09.965Z,95356.28
2022-09-04T12:22:52.410Z,95351.31
2022-09-04T12:25:38.627Z,95323.69
2022-09-04T12:28:27.990Z,95351.84
2022-09-04T12:31:00.670Z,95349.63
2022-09-04T12:33:37.216Z,95358.75
2022-09-04T12:36:33.310Z,95349.81
2022-09-04T12:39:18.579Z,95350.16
2022-09-04T12:42:10.414Z,95334.66
2022-09-04T12:44:40.005Z,95321.25
2022-09-04T12:47:14.088Z,95346.19
2022-09-04T12:49:55.634Z,95350.16
2022-09-04T12:52:31.111Z,95343.81
2022-09-04T12:55:33.526Z,95349.75
2022-09-04T12:58:12.012Z,95344.25
2022-09-04T13:01:08.487Z,95337.75
2022-09-04T13:03:47.233Z,95336.13
2022-09-04T13:06:33.000Z,95334.81
2022-09-04T13:09:19.184Z,95338.00
2022-09-04T13:12:20.883Z,95332.94
2022-09-04T13:15:00.904Z,95326.22
2022-09-04T13:17:43.587Z,95330.22
2022-09-04T13:20:10.694Z,95332.28
2022-09-04T13:23:05.341Z,95328.56
2022-09-04T13:25:42.339Z,95329.13
2022-09-04T13:28:12.175Z,95336.41
2022-09-04T13:31:05.625Z,95337.50
2022-09-04T13:33:54.936Z,95345.47
2022-09-04T13:36:36.837Z,95333.88
2022-09-04T13:39:29.698Z,95333.38
2022-09-04T13:42:42.750Z,95335.88
2022-09-04T13:45:23.770Z,95335.44
2022-09-04T13:47:59.598Z,95334.28
2022-09-04T13:50:52.259Z,95337.78
2022-09-04T13:53:36.366Z,95333.88
2022-09-04T13:56:16.866Z,95318.41
2022-09-04T13:58:51.297Z,95294.63
2022-09-04T14:01:23.818Z,95339.84
2022-09-04T14:04:04.876Z,95336.72
2022-09-04T14:06:33.040Z,95344.38
2022-09-04T14:09:04.599Z,95330.22
2022-09-04T14:11:41.797Z,95337.81
2022-09-04T14:14:18.644Z,95344.13
2022-09-04T14:16:45.518Z,95339.09
2022-09-04T14:19:33.099Z,95337.16
2022-09-04T14:22:24.672Z,95337.59
2022-09-04T14:25:12.355Z,95349.25
2022-09-04T14:27:43.773Z,95363.91
2022-09-04T14:30:18.538Z,95351.41
2022-09-04T14:33:07.403Z,95352.47
2022-09-04T14:35:47.686Z,95357.16
2022-09-04T14:38:41.263Z,95350.69
2022-09-04T14:41:14.313Z,95358.22
2022-09-04T14:44:03.867Z,95362.41
2022-09-04T14:46:38.331Z,95352.34
2022-09-04T14:49:08.899Z,95336.38
2022-09-04T14:51:40.048Z,95342.94
2022-09-04T14:54:09.563Z,95346.88
2022-09-04T14:56:36.209Z,95354.53
2022-09-04T14:59:20.727Z,95360.53
2022-09-04T15:02:08.867Z,95350.81
2022-09-04T15:05:24.527Z,95333.22
2022-09-04T15:08:03.369Z,95349.69
2022-09-04T15:10:36.778Z,95347.09
2022-09-04T15:13:28.175Z,95368.22
2022-09-04T15:16:19.427Z,95366.31
2022-09-04T15:18:55.377Z,95377.06
2022-09-04T15:21:34.447Z,95369.97
2022-09-04T15:24:11.971Z,95356.97
2022-09-04T15:27:00.129Z,95352.88
2022-09-04T15:30:02.785Z,95361.13
2022-09-04T15:32:43.058Z,95377.72
2022-09-04T15:35:33.631Z,95377.94
2022-09-04T15:38:21.937Z,95383.06
2022-09-04T15:41:15.499Z,95376.38
2022-09-04T15:43:45.627Z,95380.00
2022-09-04T15:46:28.817Z,95386.03
2022-09-04T15:48:55.405Z,95392.34
2022-09-04T15:51:48.903Z,95397.38
2022-09-04T15:54:27.153Z,95392.06
2022-09-04T15:56:57.313Z,95382.31
2022-09-04T15:59:29.886Z,95389.91
2022-09-04T16:02:12.584Z,95394.41
2022-09-04T16:05:03.478Z,95397.44
2022-09-04T16:07:40.403Z,95403.25
2022-09-04T16:10:13.575Z,95404.09
2022-09-04T16:13:05.334Z,95407.72
2022-09-04T16:15:37.891Z,95401.28
2022-09-04T16:18:51.295Z,95386.81
2022-09-04T16:21:31.902Z,95404.59
2022-09-04T16:24:08.140Z,95408.69
2022-09-04T16:26:35.229Z,95417.91
2022-09-04T16:29:15.421Z,95421.44
2022-09-04T16:31:50.664Z,95432.84
2022-09-04T16:34:29.588Z,95418.09
2022-09-04T16:37:10.694Z,95444.31
2022-09-04T16:39:55.321Z,95448.34
2022-09-04T16:42:44.407Z,95437.56
2022-09-04T16:45:20.456Z,95452.41
2022-09-04T16:47:59.182Z,95444.66
2022-09-04T16:51:41.487Z,95437.13
2022-09-04T16:54:11.237Z,95445.44
2022-09-04T16:56:40.547Z,95449.72
2022-09-04T16:59:23.577Z,95446.97
2022-09-04T17:02:10.482Z,95462.78
2022-09-04T17:04:40.399Z,95473.09
2022-09-04T17:07:08.043Z,95478.84
2022-09-04T17:09:48.029Z,95474.06
2022-09-04T17:12:37.995Z,95483.88
2022-09-04T17:15:15.377Z,95480.06
2022-09-04T17:17:45.873Z,95479.81
2022-09-04T17:20:22.790Z,95482.34
2022-09-04T17:28:59.149Z,95477.50
2022-09-04T17:29:13.815Z,95485.75
2022-09-04T17:29:41.660Z,95490.75
2022-09-04T17:32:30.621Z,95497.75
2022-09-04T17:40:33.131Z,95512.31
2022-09-04T17:41:33.254Z,95513.75
2022-09-04T17:41:35.844Z,95515.50
2022-09-04T17:44:25.393Z,95529.09
2022-09-04T17:47:31.848Z,95511.59
2022-09-04T17:50:00.496Z,95529.13
2022-09-04T17:52:53.569Z,95535.44
2022-09-04T17:55:21.221Z,95541.47
2022-09-04T17:58:03.533Z,95532.94
2022-09-04T18:00:38.548Z,95531.47
2022-09-04T18:03:22.469Z,95542.03
2022-09-04T18:05:53.152Z,95541.03
2022-09-04T18:08:51.403Z,95534.00
2022-09-04T18:11:29.560Z,95543.28
2022-09-04T18:14:11.332Z,95538.97
2022-09-04T18:16:40.600Z,95558.06
2022-09-04T18:19:32.297Z,95548.56
2022-09-04T18:22:33.324Z,95542.03
2022-09-04T18:25:17.336Z,95546.53
2022-09-04T18:28:11.512Z,95548.28
2022-09-04T18:37:10.885Z,95533.97
2022-09-04T18:37:21.859Z,95550.94
2022-09-04T18:37:44.725Z,95546.41
2022-09-04T18:41:54.809Z,95546.41
2022-09-04T18:50:23.722Z,95542.34
2022-09-04T18:50:40.775Z,95534.00
2022-09-04T18:50:50.079Z,95542.06
2022-09-04T18:52:04.738Z,95534.22
2022-09-04T18:54:41.720Z,95544.75
2022-09-04T18:57:50.582Z,95540.66
2022-09-04T19:00:39.949Z,95533.56
2022-09-04T19:03:22.096Z,95541.25
2022-09-04T19:05:50.808Z,95545.31
2022-09-04T19:08:32.938Z,95547.09
2022-09-04T19:11:03.206Z,95548.09
2022-09-04T19:14:15.455Z,95547.06
2022-09-04T19:16:53.630Z,95549.31
2022-09-04T19:19:23.498Z,95552.34
2022-09-04T19:22:09.582Z,95548.88
2022-09-04T19:24:41.463Z,95559.41
2022-09-04T19:27:37.211Z,95556.34
2022-09-04T19:30:19.900Z,95558.09
2022-09-04T19:33:02.987Z,95559.41
2022-09-04T19:35:42.905Z,95559.69
2022-09-04T19:45:03.670Z,95532.53
2022-09-04T19:46:01.661Z,95565.78
2022-09-04T19:46:26.593Z,95575.59
2022-09-04T19:47:51.358Z,95572.66
2022-09-04T19:53:20.305Z,95571.94
2022-09-04T19:53:37.653Z,95567.72
2022-09-04T19:56:05.348Z,95579.25
2022-09-04T19:58:46.853Z,95571.50
2022-09-04T20:01:23.064Z,95568.25
2022-09-04T20:04:11.052Z,95574.28
2022-09-04T20:06:47.753Z,95545.78
2022-09-04T20:09:26.436Z,95565.47
2022-09-04T20:12:03.017Z,95566.47
2022-09-04T20:14:42.324Z,95569.94
2022-09-04T20:17:18.266Z,95562.34
2022-09-04T20:19:52.052Z,95562.38
2022-09-04T20:22:35.040Z,95562.88
2022-09-04T20:25:07.564Z,95564.59
2022-09-04T20:27:46.237Z,95566.84
2022-09-04T20:30:25.495Z,95560.53
2022-09-04T20:33:04.185Z,95569.84
2022-09-04T20:35:35.326Z,95560.28
2022-09-04T20:38:45.596Z,95569.28
2022-09-04T20:41:30.452Z,95569.50
2022-09-04T20:44:15.824Z,95564.22
2022-09-04T20:52:49.427Z,95562.72
2022-09-04T20:53:04.638Z,95566.94
2022-09-04T20:53:21.006Z,95560.66
2022-09-04T20:56:55.564Z,95556.84
2022-09-04T21:03:06.294Z,95559.78
2022-09-04T21:03:20.093Z,95576.81
2022-09-04T21:05:40.356Z,95568.53
2022-09-04T21:08:21.529Z,95560.53
2022-09-04T21:11:39.149Z,95561.81
2022-09-04T21:14:15.213Z,95557.28
2022-09-04T21:17:29.849Z,95559.59
2022-09-04T21:20:59.981Z,95570.63
2022-09-04T21:23:54.423Z,95565.41
2022-09-04T21:26:36.617Z,95567.69
2022-09-04T21:29:15.608Z,95571.69
2022-09-04T21:31:48.046Z,95563.22
2022-09-04T21:34:53.962Z,95561.91
2022-09-04T21:37:40.179Z,95564.47
2022-09-04T21:40:50.159Z,95572.75
2022-09-04T21:43:12.238Z,95581.53
2022-09-04T21:46:06.162Z,95574.81
2022-09-04T21:48:52.750Z,95576.06
2022-09-04T21:51:35.499Z,95577.81
2022-09-04T21:54:37.803Z,95581.59
2022-09-04T22:02:27.318Z,95583.63
2022-09-04T22:02:41.884Z,95589.91
2022-09-04T22:03:05.458Z,95593.66
2022-09-04T22:05:47.499Z,95595.41
2022-09-04T22:13:27.431Z,95589.41
2022-09-04T22:13:38.741Z,95592.91
2022-09-04T22:14:48.337Z,95575.59
2022-09-04T22:17:39.447Z,95578.38
2022-09-04T22:20:17.762Z,95571.09
2022-09-04T22:23:09.810Z,95582.94
2022-09-04T22:25:39.884Z,95582.88
2022-09-04T22:28:15.214Z,95578.63
2022-09-04T22:31:03.818Z,95576.38
2022-09-04T22:34:15.211Z,95578.38
2022-09-04T22:37:16.584Z,95563.22
2022-09-04T22:40:04.709Z,95581.34
2022-09-04T22:42:46.255Z,95576.09
2022-09-04T22:45:44.247Z,95578.59
2022-09-04T22:48:31.493Z,95577.34
2022-09-04T22:51:09.062Z,95573.81
2022-09-04T22:54:12.966Z,95586.59
2022-09-04T22:57:08.319Z,95587.34
2022-09-04T22:59:34.916Z,95575.97
2022-09-04T23:03:07.179Z,95588.22
2022-09-04T23:05:46.974Z,95586.47
2022-09-04T23:13:46.717Z,95584.69
2022-09-04T23:13:53.395Z,95585.16
2022-09-04T23:14:45.911Z,95594.41
2022-09-04T23:17:33.492Z,95589.66
2022-09-04T23:26:35.287Z,95596.25
2022-09-04T23:26:46.442Z,95594.69
2022-09-04T23:27:01.096Z,95587.09
2022-09-04T23:30:04.829Z,95602.53
2022-09-04T23:32:53.991Z,95584.28
2022-09-04T23:35:58.103Z,95598.03
2022-09-04T23:38:46.680Z,95609.91
2022-09-04T23:41:52.929Z,95623.47
2022-09-04T23:44:44.654Z,95616.53
2022-09-04T23:47:24.750Z,95609.44
2022-09-04T23:50:32.480Z,95623.69
2022-09-04T23:53:20.391Z,95622.91
2022-09-04T23:56:19.047Z,95623.22
2022-09-04T23:59:26.717Z,95614.41
